• Join FlightAware (Why Join?)
  • Login
  • US Flag 
10:37AM EST


 

Airport Tracker/Info


-or-


 

Live Flight TrackerFlight Track Log ✈ UAL3773 ✈ 22-Apr-2013 ✈ KIAD - KMCI

Flight Track Log - Related Links

Times and Time Zones

All times are in EDT time to prevent confusion due to time zone crossing. See the UAL3773 flight status page for this flight to view local times or setup timezone preferences in your user account.

Time Position Orientation Groundspeed Altitude Reporting Facility
EDT Latitude Longitude Course Direction KTS MPH feet Rate Location/Type
04:07PM 38.9167 -77.4667 207° Southwest 173 199 1,600  Level Potomac TRACON
04:08PM 38.8667 -77.5000 207° Southwest 234 269 3,700 2,400 Climbing Potomac TRACON
04:09PM 38.8000 -77.5667 218° Southwest 269 310 6,400 2,760 Climbing Potomac TRACON
04:10PM 38.7667 -77.6500 243° Southwest 273 314 9,300 2,460 Climbing Potomac TRACON
04:11PM 38.7681 -77.6764 274° West 274 315 9,800 600 Climbing Washington Center
04:12PM 38.7767 -77.7886 276° West 323 372 10,200 1,140 Climbing Washington Center
04:13PM 38.8011 -77.9197 283° West 349 402 12,100 1,860 Climbing Washington Center
04:14PM 38.8236 -78.0483 283° West 355 409 14,000 2,040 Climbing Washington Center
04:15PM 38.8483 -78.1719 284° West 355 409 16,200 2,340 Climbing Washington Center
04:16PM 38.8539 -78.2919 273° West 350 403 18,700 2,040 Climbing Washington Center
04:17PM 38.8533 -78.4092 270° West 345 397 20,300 1,560 Climbing Washington Center
04:18PM 38.8503 -78.5344 268° West 345 397 21,900 1,500 Climbing Washington Center
04:19PM 38.8514 -78.6625 271° West 350 403 23,400 1,320 Climbing Washington Center
04:20PM 38.8481 -78.7903 268° West 360 414 24,600 1,200 Climbing Washington Center
04:21PM 38.8464 -78.9208 269° West 366 421 25,800 1,320 Climbing Washington Center
04:22PM 38.8447 -79.0539 269° West 366 421 27,300 1,020 Climbing Washington Center
04:23PM 38.8428 -79.1900 269° West 371 427 27,900 780 Climbing Washington Center
04:24PM 38.8428 -79.3283 270° West 384 442 28,900 900 Climbing Washington Center
04:25PM 38.8383 -79.4669 268° West 384 442 29,800 900 Climbing Washington Center
04:26PM 38.8364 -79.5972 269° West 396 456 30,700 900 Climbing Washington Center
04:27PM 38.8314 -79.7383 267° West 402 463 31,700 720 Climbing Washington Center
04:28PM 38.8286 -79.8794 269° West 402 463 32,200 900 Climbing Washington Center
04:29PM 38.8228 -80.0364 267° West 402 463 33,600 1,320 Climbing Washington Center
04:31PM 38.8175 -80.2575 268° West 360 414 36,000 840 Climbing Indianapolis Center
04:32PM 38.8133 -80.3858 268° West 360 414 36,000  Level Indianapolis Center
04:33PM 38.8094 -80.5203 268° West 375 432 36,000  Level Indianapolis Center
04:34PM 38.8042 -80.6603 267° West 390 449 36,000  Level Indianapolis Center
04:35PM 38.8003 -80.8006 268° West 393 452 36,000  Level Indianapolis Center
04:36PM 38.7958 -80.9383 268° West 390 449 36,000  Level Indianapolis Center
04:37PM 38.7900 -81.1047 267° West 390 449 36,000  Level Indianapolis Center
04:38PM 38.7933 -81.2461 272° West 397 457 36,000  Level Indianapolis Center
04:39PM 38.8111 -81.3867 279° West 403 464 36,000  Level Indianapolis Center
04:40PM 38.8278 -81.5272 279° West 409 471 36,000  Level Indianapolis Center
04:41PM 38.8456 -81.6683 279° West 409 471 36,000  Level Indianapolis Center
04:42PM 38.8661 -81.8394 279° West 408 470 36,000  Level Indianapolis Center
04:43PM 38.8836 -81.9850 279° West 412 474 36,000  Level Indianapolis Center
04:44PM 38.9008 -82.1319 279° West 417 480 36,000  Level Indianapolis Center
04:45PM 38.9181 -82.2778 279° West 414 476 36,000  Level Indianapolis Center
04:46PM 38.9347 -82.4247 278° West 416 479 36,000  Level Indianapolis Center
04:47PM 38.9511 -82.5728 278° West 418 481 36,000  Level Indianapolis Center
04:48PM 38.9722 -82.7500 279° West 418 481 36,000  Level Indianapolis Center
04:49PM 38.9892 -82.8972 278° West 416 479 36,000  Level Indianapolis Center
04:50PM 39.0047 -83.0436 278° West 415 478 36,000  Level Indianapolis Center
04:51PM 39.0217 -83.2014 278° West 414 476 36,000  Level Indianapolis Center
04:52PM 39.0375 -83.3481 278° West 410 472 36,000  Level Indianapolis Center
04:53PM 39.0531 -83.4947 278° West 409 471 36,000  Level Indianapolis Center
04:54PM 39.0681 -83.6400 278° West 406 467 36,000  Level Indianapolis Center
04:55PM 39.0839 -83.7864 278° West 407 468 36,000  Level Indianapolis Center
04:56PM 39.0983 -83.9333 277° West 409 471 36,000  Level Indianapolis Center
04:57PM 39.1133 -84.0797 278° West 409 471 36,000  Level Indianapolis Center
04:58PM 39.1283 -84.2278 277° West 412 474 36,000  Level Indianapolis Center
04:59PM 39.1422 -84.3744 277° West 410 472 36,000  Level Indianapolis Center
05:01PM 39.1575 -84.5228 278° West 412 474 36,000  Level Indianapolis Center
05:02PM 39.1736 -84.6961 277° West 412 474 36,000  Level Indianapolis Center
05:03PM 39.1889 -84.8467 278° West 417 480 36,000  Level Indianapolis Center
05:04PM 39.2017 -84.9950 276° West 414 476 36,000  Level Indianapolis Center
05:05PM 39.2153 -85.1442 277° West 416 479 36,000  Level Indianapolis Center
05:06PM 39.2303 -85.2939 277° West 418 481 36,000  Level Indianapolis Center
05:07PM 39.2431 -85.4450 276° West 419 482 36,000  Level Indianapolis Center
05:08PM 39.2567 -85.6017 276° West 420 483 36,000  Level Indianapolis Center
05:09PM 39.2769 -85.8417 276° West 420 483 36,000  Level Kansas City Center
05:10PM 39.2819 -85.9019 276° West 422 486 36,000  Level Indianapolis Center
05:11PM 39.2950 -86.0536 276° West 424 488 36,000  Level Indianapolis Center
05:12PM 39.3100 -86.2353 276° West 425 489 36,000  Level Indianapolis Center
05:13PM 39.3233 -86.3872 277° West 425 489 36,000  Level Indianapolis Center
05:14PM 39.3344 -86.5394 275° West 427 491 36,000  Level Indianapolis Center
05:15PM 39.3472 -86.6914 276° West 427 491 36,000  Level Indianapolis Center
05:16PM 39.3586 -86.8417 276° West 421 484 36,000  Level Indianapolis Center
05:17PM 39.3706 -86.9942 276° West 426 490 36,000  Level Indianapolis Center
05:18PM 39.3822 -87.1450 276° West 423 487 36,000  Level Indianapolis Center
05:19PM 39.3947 -87.3239 275° West 418 481 36,000  Level Indianapolis Center
05:20PM 39.4056 -87.4692 276° West 408 470 36,000  Level Indianapolis Center
05:21PM 39.4156 -87.6139 275° West 405 466 36,000  Level Indianapolis Center
05:22PM 39.4250 -87.7594 275° West 405 466 36,000  Level Indianapolis Center
05:23PM 39.4356 -87.9014 276° West 401 461 36,000  Level Indianapolis Center
05:24PM 39.4419 -87.9861 276° West 397 457 36,000  Level Kansas City Center
05:25PM 39.4508 -88.1275 275° West 395 455 36,000  Level Kansas City Center
05:26PM 39.4597 -88.2672 275° West 393 452 36,000  Level Kansas City Center
05:27PM 39.4694 -88.4069 275° West 390 449 36,000  Level Kansas City Center
05:28PM 39.4806 -88.5711 275° West 385 443 36,000  Level Kansas City Center
05:29PM 39.4864 -88.7078 273° West 388 447 36,000  Level Kansas City Center
05:30PM 39.4953 -88.8442 275° West 382 440 36,000  Level Kansas City Center
05:31PM 39.5031 -88.9814 274° West 382 440 36,000  Level Kansas City Center
05:32PM 39.5111 -89.1178 274° West 381 438 36,000  Level Kansas City Center
05:33PM 39.5206 -89.2683 275° West 377 434 36,000  Level Kansas City Center
05:34PM 39.5261 -89.4047 273° West 380 437 36,000  Level Kansas City Center
05:35PM 39.5347 -89.5408 275° West 380 437 36,000  Level Kansas City Center
05:36PM 39.5419 -89.6769 274° West 380 437 36,000  Level Kansas City Center
05:37PM 39.5486 -89.8117 274° West 379 436 36,000  Level Kansas City Center
05:38PM 39.5572 -89.9744 274° West 380 437 36,000  Level Kansas City Center
05:39PM 39.5636 -90.1103 274° West 379 436 36,000  Level Kansas City Center
05:40PM 39.5708 -90.2469 274° West 381 438 36,000  Level Kansas City Center
05:41PM 39.5769 -90.3828 273° West 381 438 36,000  Level Kansas City Center
05:42PM 39.5831 -90.5189 273° West 380 437 36,000  Level Kansas City Center
05:43PM 39.5881 -90.6567 273° West 383 441 36,000  Level Kansas City Center
05:44PM 39.5958 -90.8253 273° West 390 449 36,000  Level Kansas City Center
05:45PM 39.6014 -90.9650 273° West 390 449 36,000  Level Kansas City Center
05:47PM 39.6081 -91.1044 274° West 391 450 36,000  Level Kansas City Center
05:48PM 39.6131 -91.2444 273° West 391 450 36,000  Level Kansas City Center
05:49PM 39.6175 -91.3942 272° West 395 455 36,000  Level Kansas City Center
05:50PM 39.6239 -91.5353 273° West 395 455 36,000  Level Kansas City Center
05:51PM 39.6292 -91.6769 273° West 395 455 36,000  Level Kansas City Center
05:52PM 39.6342 -91.8458 272° West 394 453 36,000  Level Kansas City Center
05:53PM 39.6397 -91.9842 273° West 390 449 36,000  Level Kansas City Center
05:54PM 39.6428 -92.1247 272° West 390 449 36,000  Level Kansas City Center
05:55PM 39.6475 -92.2631 273° West 389 448 36,000  Level Kansas City Center
05:56PM 39.6525 -92.4000 273° West 386 444 36,000 -840 Level Kansas City Center
05:57PM 39.6550 -92.5378 271° West 384 442 34,300 -2,160 Descending Kansas City Center
05:58PM 39.6528 -92.7000 269° West 381 438 31,500 -2,520 Descending Kansas City Center
05:59PM 39.6500 -92.8317 268° West 375 432 29,300 -2,160 Descending Kansas City Center
06:00PM 39.6481 -92.9689 269° West 375 432 27,100 -2,220 Descending Kansas City Center
06:01PM 39.6456 -93.1103 269° West 386 444 24,700 -2,340 Descending Kansas City Center
06:02PM 39.6431 -93.2514 269° West 393 452 22,300 -2,340 Descending Kansas City Center
06:03PM 39.6414 -93.3861 269° West 381 438 19,900 -2,640 Descending Kansas City Center
06:04PM 39.6375 -93.5422 268° West 369 425 17,000 -2,520 Descending Kansas City Center
06:05PM 39.6358 -93.6678 269° West 353 406 14,800 -1,980 Descending Kansas City Center
06:06PM 39.6331 -93.7933 268° West 327 376 12,900 -1,680 Descending Kansas City Center
06:07PM 39.6253 -93.8897 264° West 288 331 11,500 -1,440 Descending Kansas City Center
06:08PM 39.5817 -93.9731 236° Southwest 250 288 10,000 -1,320 Descending Kansas City Center
06:09PM 39.5450 -94.0456 237° Southwest 252 290 8,800 -1,320 Descending Kansas City Center
06:10PM 39.5253 -94.1442 255° West 265 305 7,300 -1,320 Descending Kansas City Center
06:11PM 39.5178 -94.2414 264° West 285 328 6,100 -660 Descending Kansas City Center
06:12PM 39.5106 -94.3303 264° West 261 300 6,000 -120 Descending Kansas City Center
06:13PM 39.4992 -94.4322 262° West 259 298 5,900 -780 Descending Kansas City Center
06:14PM 39.4906 -94.5211 263° West 261 300 4,500 -1,140 Descending Kansas City Center
06:15PM 39.4811 -94.6178 263° West 240 276 3,600 -960 Descending Kansas City Center
06:16PM 39.4528 -94.6675 234° Southwest 182 209 2,600 -480 Descending Kansas City Center
06:17PM 39.4075 -94.6972 207° Southwest 167 192 2,600 -300 Level Kansas City Center
06:18PM 39.3706 -94.7064 191° South 144 166 2,000 -720 Descending Kansas City Center
06:19PM 39.3306 -94.7189 194° South 134 154 1,200 -540 Descending Kansas City Center
06:21PM 39.3031 -94.7258 191° South 90 104 1,000 -240 Descending Kansas City Center